createdAt,value
2022-11-14T00:00:51.484Z,32.47
2022-11-14T00:03:37.099Z,32.23
2022-11-14T00:06:23.066Z,32.80
2022-11-14T00:09:08.803Z,32.47
2022-11-14T00:11:56.111Z,31.67
2022-11-14T00:14:42.581Z,32.63
2022-11-14T00:17:28.408Z,31.83
2022-11-14T00:20:14.426Z,34.37
2022-11-14T00:23:00.110Z,34.60
2022-11-14T00:25:46.309Z,35.00
2022-11-14T00:28:32.690Z,34.40
2022-11-14T00:31:18.827Z,33.00
2022-11-14T00:34:05.143Z,32.93
2022-11-14T00:36:51.488Z,32.57
2022-11-14T00:39:37.589Z,32.23
2022-11-14T00:42:23.554Z,33.43
2022-11-14T00:45:10.045Z,32.40
2022-11-14T00:47:55.645Z,33.33
2022-11-14T00:50:42.154Z,33.57
2022-11-14T00:53:28.184Z,34.47
2022-11-14T00:56:14.175Z,33.07
2022-11-14T00:59:00.177Z,32.27
2022-11-14T01:01:45.776Z,32.47
2022-11-14T01:04:31.825Z,32.30
2022-11-14T01:07:17.576Z,33.90
2022-11-14T01:10:04.499Z,34.83
2022-11-14T01:12:50.062Z,33.73
2022-11-14T01:15:47.348Z,32.87
2022-11-14T01:18:33.412Z,33.77
2022-11-14T01:21:19.391Z,34.23
2022-11-14T01:24:05.827Z,34.67
2022-11-14T01:26:51.806Z,34.70
2022-11-14T01:29:37.559Z,34.53
2022-11-14T01:32:23.510Z,35.30
2022-11-14T01:35:09.448Z,34.37
2022-11-14T01:37:55.316Z,35.73
2022-11-14T01:40:45.569Z,36.23
2022-11-14T01:43:38.843Z,35.90
2022-11-14T01:46:35.325Z,35.73
2022-11-14T01:49:26.331Z,36.07
2022-11-14T01:52:22.561Z,36.57
2022-11-14T01:55:09.958Z,34.97
2022-11-14T01:57:57.122Z,37.70
2022-11-14T02:00:44.431Z,36.87
2022-11-14T02:03:31.456Z,35.93
2022-11-14T02:06:21.282Z,36.57
2022-11-14T02:09:07.886Z,37.30
2022-11-14T02:11:57.037Z,37.03
2022-11-14T02:14:45.415Z,37.73
2022-11-14T02:17:32.394Z,40.50
2022-11-14T02:20:23.711Z,36.73
2022-11-14T02:23:11.431Z,39.10
2022-11-14T02:25:58.195Z,39.27
2022-11-14T02:28:43.991Z,38.83
2022-11-14T02:31:30.091Z,39.17
2022-11-14T02:34:20.144Z,38.53
2022-11-14T02:37:07.302Z,41.50
2022-11-14T02:39:52.989Z,41.30
2022-11-14T02:42:38.785Z,41.30
2022-11-14T02:45:24.915Z,38.23
2022-11-14T02:48:11.003Z,42.37
2022-11-14T02:50:57.130Z,41.43
2022-11-14T02:53:43.117Z,41.67
2022-11-14T02:56:29.042Z,41.47
2022-11-14T02:59:14.990Z,40.90
2022-11-14T03:02:01.375Z,41.80
2022-11-14T03:04:47.145Z,40.50
2022-11-14T03:07:33.274Z,39.50
2022-11-14T03:10:19.082Z,40.93
2022-11-14T03:13:04.929Z,40.23
2022-11-14T03:15:50.942Z,39.37
2022-11-14T03:18:36.996Z,38.73
2022-11-14T03:21:23.446Z,41.07
2022-11-14T03:24:09.288Z,39.97
2022-11-14T03:26:55.291Z,39.20
2022-11-14T03:29:41.587Z,38.60
2022-11-14T03:32:27.157Z,39.67
2022-11-14T03:35:13.415Z,38.23
2022-11-14T03:37:59.463Z,37.53
2022-11-14T03:40:45.784Z,34.50
2022-11-14T03:43:33.834Z,37.27
2022-11-14T03:46:19.903Z,35.37
2022-11-14T03:49:05.852Z,34.37
2022-11-14T03:51:51.798Z,35.70
2022-11-14T03:54:38.272Z,35.93
2022-11-14T03:57:24.118Z,36.83
2022-11-14T04:00:10.655Z,35.50
2022-11-14T04:02:57.338Z,33.90
2022-11-14T04:05:46.411Z,34.87
2022-11-14T04:08:32.937Z,35.33
2022-11-14T04:11:19.747Z,36.17
2022-11-14T04:14:05.533Z,33.83
2022-11-14T04:16:51.249Z,35.87
2022-11-14T04:19:37.427Z,38.10
2022-11-14T04:22:23.243Z,37.00
2022-11-14T04:25:09.914Z,37.20
2022-11-14T04:27:55.456Z,36.13
2022-11-14T04:30:42.283Z,36.33
2022-11-14T04:33:28.170Z,34.87
2022-11-14T04:36:14.217Z,38.13
2022-11-14T04:39:00.836Z,35.90
2022-11-14T04:41:46.814Z,36.83
2022-11-14T04:44:32.721Z,36.60
2022-11-14T04:47:18.771Z,36.93
2022-11-14T04:50:05.235Z,34.77
2022-11-14T04:52:54.178Z,34.27
2022-11-14T04:55:40.151Z,35.23
2022-11-14T04:58:26.832Z,34.27
2022-11-14T05:01:14.480Z,37.07
2022-11-14T05:04:00.448Z,33.67
2022-11-14T05:06:46.563Z,37.30
2022-11-14T05:09:32.127Z,37.67
2022-11-14T05:12:18.347Z,36.93
2022-11-14T05:15:04.543Z,37.27
2022-11-14T05:17:50.211Z,35.63
2022-11-14T05:20:36.133Z,37.93
2022-11-14T05:23:24.031Z,37.90
2022-11-14T05:26:12.763Z,39.43
2022-11-14T05:28:58.542Z,38.23
2022-11-14T05:31:44.294Z,35.90
2022-11-14T05:34:30.226Z,36.80
2022-11-14T05:37:16.109Z,35.27
2022-11-14T05:40:02.587Z,35.83
2022-11-14T05:42:48.521Z,33.97
2022-11-14T05:45:34.834Z,35.30
2022-11-14T05:48:20.570Z,34.50
2022-11-14T05:51:07.643Z,33.33
2022-11-14T05:53:53.817Z,34.03
2022-11-14T05:56:39.478Z,35.70
2022-11-14T05:59:25.330Z,35.40
2022-11-14T06:02:11.077Z,34.03
2022-11-14T06:04:57.260Z,35.23
2022-11-14T06:07:43.354Z,33.27
2022-11-14T06:10:29.918Z,35.93
2022-11-14T06:13:15.668Z,36.13
2022-11-14T06:16:08.064Z,34.27
2022-11-14T06:18:54.658Z,34.10
2022-11-14T06:21:40.569Z,33.53
2022-11-14T06:24:26.417Z,33.70
2022-11-14T06:27:12.380Z,34.60
2022-11-14T06:29:58.441Z,36.37
2022-11-14T06:32:44.446Z,36.67
2022-11-14T06:35:30.646Z,35.20
2022-11-14T06:38:16.614Z,35.93
2022-11-14T06:41:08.353Z,35.53
2022-11-14T06:43:54.824Z,35.87
2022-11-14T06:46:41.116Z,33.77
2022-11-14T06:49:27.774Z,35.53
2022-11-14T06:52:13.647Z,38.07
2022-11-14T06:54:59.544Z,35.83
2022-11-14T06:57:45.843Z,35.67
2022-11-14T07:00:31.827Z,35.43
2022-11-14T07:03:17.831Z,35.97
2022-11-14T07:06:05.265Z,34.87
2022-11-14T07:08:52.823Z,36.80
2022-11-14T07:11:38.569Z,35.57
2022-11-14T07:14:24.244Z,35.20
2022-11-14T07:17:09.972Z,35.33
2022-11-14T07:19:55.874Z,35.37
2022-11-14T07:22:41.699Z,33.67
2022-11-14T07:25:27.542Z,35.10
2022-11-14T07:28:13.483Z,33.67
2022-11-14T07:30:59.590Z,33.60
2022-11-14T07:33:46.184Z,32.83
2022-11-14T07:36:31.798Z,33.17
2022-11-14T07:39:17.746Z,32.87
2022-11-14T07:42:03.963Z,32.40
2022-11-14T07:44:49.986Z,32.33
2022-11-14T07:47:36.213Z,33.17
2022-11-14T07:50:23.763Z,30.70
2022-11-14T07:53:10.349Z,31.13
2022-11-14T07:55:57.356Z,31.23
2022-11-14T07:58:43.393Z,31.50
2022-11-14T08:01:29.175Z,30.63
2022-11-14T08:04:15.050Z,27.90
2022-11-14T08:07:00.922Z,28.80
2022-11-14T08:09:46.750Z,28.37
2022-11-14T08:12:32.822Z,29.40
2022-11-14T08:15:18.790Z,27.70
2022-11-14T08:18:05.291Z,28.00
2022-11-14T08:20:51.613Z,26.73
2022-11-14T08:23:37.945Z,26.83
2022-11-14T08:26:23.986Z,28.80
2022-11-14T08:29:09.984Z,27.33
2022-11-14T08:31:59.976Z,26.53
2022-11-14T08:34:46.319Z,24.97
2022-11-14T08:37:32.223Z,24.67
2022-11-14T08:40:18.403Z,25.33
2022-11-14T08:43:04.251Z,25.57
2022-11-14T08:45:50.045Z,23.10
2022-11-14T08:48:36.009Z,24.00
2022-11-14T08:51:22.223Z,25.63
2022-11-14T08:54:08.321Z,23.50
2022-11-14T08:56:54.203Z,25.20
2022-11-14T08:59:40.227Z,25.17
2022-11-14T09:02:26.185Z,24.77
2022-11-14T09:05:12.010Z,24.23
2022-11-14T09:07:58.972Z,24.30
2022-11-14T09:10:45.452Z,26.00
2022-11-14T09:13:33.485Z,25.17
2022-11-14T09:16:19.022Z,24.83
2022-11-14T09:19:04.884Z,24.67
2022-11-14T09:21:51.039Z,24.00
2022-11-14T09:24:37.061Z,23.20
2022-11-14T09:27:22.789Z,24.60
2022-11-14T09:30:11.201Z,24.13
2022-11-14T09:33:02.153Z,24.67
2022-11-14T09:35:57.248Z,24.53
2022-11-14T09:38:44.388Z,23.83
2022-11-14T09:41:36.414Z,24.57
2022-11-14T09:44:40.591Z,22.50
2022-11-14T09:47:48.066Z,24.00
2022-11-14T09:50:40.250Z,22.73
2022-11-14T09:53:39.930Z,23.20
2022-11-14T09:56:26.826Z,23.07
2022-11-14T09:59:14.118Z,22.17
2022-11-14T10:02:37.549Z,22.20
2022-11-14T10:05:31.592Z,22.23
2022-11-14T10:08:41.974Z,22.50
2022-11-14T10:11:36.614Z,23.10
2022-11-14T10:14:51.493Z,22.70
2022-11-14T10:17:46.416Z,21.53
2022-11-14T10:20:52.963Z,24.73
2022-11-14T10:24:12.924Z,22.87
2022-11-14T10:27:03.353Z,22.43
2022-11-14T10:30:01.512Z,24.83
2022-11-14T10:32:52.886Z,26.47
2022-11-14T10:35:47.606Z,24.70
2022-11-14T10:38:52.351Z,31.00
2022-11-14T10:41:56.762Z,25.73
2022-11-14T10:45:01.092Z,23.63
2022-11-14T10:47:51.974Z,25.40
2022-11-14T10:50:51.690Z,23.87
2022-11-14T10:54:04.206Z,24.57
2022-11-14T10:56:52.205Z,24.53
2022-11-14T10:59:38.453Z,24.70
2022-11-14T11:02:24.035Z,22.53
2022-11-14T11:05:18.431Z,22.27
2022-11-14T11:08:43.342Z,23.23
2022-11-14T11:11:30.904Z,23.83
2022-11-14T11:14:18.944Z,22.53
2022-11-14T11:17:29.554Z,20.53
2022-11-14T11:20:31.690Z,19.93
2022-11-14T11:23:27.295Z,19.43
2022-11-14T11:26:17.661Z,19.90
2022-11-14T11:29:09.613Z,20.50
2022-11-14T11:31:59.691Z,18.67
2022-11-14T11:34:45.728Z,19.37
2022-11-14T11:37:36.136Z,19.33
2022-11-14T11:40:27.250Z,18.80
2022-11-14T11:46:48.838Z,17.90
2022-11-14T11:49:47.400Z,18.50
2022-11-14T11:53:11.313Z,19.97
2022-11-14T11:56:04.626Z,19.30
2022-11-14T11:59:26.727Z,19.60
2022-11-14T12:02:27.094Z,20.27
2022-11-14T12:05:36.038Z,19.43
2022-11-14T12:08:38.668Z,21.00
2022-11-14T12:11:27.522Z,19.93
2022-11-14T12:14:28.386Z,20.10
2022-11-14T12:18:00.663Z,20.47
2022-11-14T12:21:04.725Z,20.53
2022-11-14T12:24:25.301Z,18.17
2022-11-14T12:27:37.798Z,19.30
2022-11-14T12:30:25.960Z,19.37
2022-11-14T12:33:23.579Z,20.60
2022-11-14T12:36:12.649Z,21.67
2022-11-14T12:38:59.378Z,20.47
2022-11-14T12:41:45.407Z,20.97
2022-11-14T12:44:32.834Z,22.13
2022-11-14T12:47:27.449Z,21.27
2022-11-14T12:50:38.726Z,21.63
2022-11-14T12:53:36.573Z,21.87
2022-11-14T12:56:31.380Z,23.47
2022-11-14T12:59:48.167Z,27.63
2022-11-14T13:02:55.950Z,23.63
2022-11-14T13:05:46.869Z,22.23
2022-11-14T13:08:54.922Z,22.93
2022-11-14T13:12:02.519Z,24.93
2022-11-14T13:15:14.934Z,22.60
2022-11-14T13:18:32.012Z,23.13
2022-11-14T13:21:46.512Z,24.00
2022-11-14T13:24:58.475Z,24.43
2022-11-14T13:31:05.664Z,26.00
2022-11-14T13:33:59.076Z,25.90
2022-11-14T13:36:45.005Z,25.60
2022-11-14T13:39:56.398Z,25.90
2022-11-14T13:43:00.163Z,26.10
2022-11-14T13:46:01.715Z,27.00
2022-11-14T13:49:17.885Z,28.47
2022-11-14T13:52:04.361Z,27.13
2022-11-14T13:54:50.720Z,27.43
2022-11-14T13:57:52.426Z,29.03
2022-11-14T14:01:01.948Z,30.10
2022-11-14T14:04:31.099Z,29.23
2022-11-14T14:07:25.725Z,30.27
2022-11-14T14:10:26.705Z,28.70
2022-11-14T14:13:40.516Z,29.93
2022-11-14T14:16:51.242Z,29.67
2022-11-14T14:19:37.312Z,29.00
2022-11-14T14:22:33.683Z,32.77
2022-11-14T14:25:45.609Z,32.30
2022-11-14T14:28:56.232Z,31.87
2022-11-14T14:31:42.751Z,32.03
2022-11-14T14:34:31.211Z,32.20
2022-11-14T14:37:23.883Z,33.13
2022-11-14T14:40:24.649Z,34.93
2022-11-14T14:43:28.611Z,34.43
2022-11-14T14:46:14.531Z,36.17
2022-11-14T14:49:03.754Z,35.63
2022-11-14T14:51:52.131Z,36.23
2022-11-14T14:54:41.496Z,35.27
2022-11-14T14:57:28.303Z,37.57
2022-11-14T15:00:28.770Z,37.80
2022-11-14T15:03:14.946Z,34.87
2022-11-14T15:06:04.635Z,36.67
2022-11-14T15:08:50.734Z,37.17
2022-11-14T15:11:40.948Z,37.23
2022-11-14T15:14:31.179Z,37.70
2022-11-14T15:17:17.834Z,37.73
2022-11-14T15:20:04.271Z,37.60
2022-11-14T15:23:10.427Z,34.93
2022-11-14T15:26:15.657Z,37.57
2022-11-14T15:29:22.020Z,38.00
2022-11-14T15:32:19.517Z,38.73
2022-11-14T15:35:26.425Z,41.77
2022-11-14T15:38:42.654Z,42.63
2022-11-14T15:41:24.357Z,39.50
2022-11-14T15:44:34.006Z,39.77
2022-11-14T15:47:36.237Z,37.93
2022-11-14T15:50:25.483Z,58.67
2022-11-14T15:53:25.554Z,48.07
2022-11-14T15:56:13.138Z,51.63
2022-11-14T15:58:59.454Z,51.40
2022-11-14T16:01:50.275Z,53.87
2022-11-14T16:04:43.070Z,50.70
2022-11-14T16:07:33.328Z,47.07
2022-11-14T16:10:24.807Z,47.40
2022-11-14T16:13:11.308Z,47.23
2022-11-14T16:15:57.271Z,46.50
2022-11-14T16:18:42.986Z,47.07
2022-11-14T16:21:29.224Z,50.10
2022-11-14T16:24:23.578Z,48.50
2022-11-14T16:27:12.525Z,48.73
2022-11-14T16:30:00.189Z,47.70
2022-11-14T16:32:47.862Z,50.17
2022-11-14T16:35:34.829Z,54.13
2022-11-14T16:38:21.092Z,50.43
2022-11-14T16:41:12.223Z,49.67
2022-11-14T16:43:58.237Z,50.13
2022-11-14T16:46:47.829Z,50.43
2022-11-14T16:49:35.066Z,48.33
2022-11-14T16:52:21.073Z,49.40
2022-11-14T16:55:10.136Z,50.33
2022-11-14T16:57:56.246Z,51.50
2022-11-14T17:00:48.566Z,50.30
2022-11-14T17:03:34.614Z,50.23
2022-11-14T17:06:20.630Z,48.43
2022-11-14T17:09:06.869Z,49.00
2022-11-14T17:11:52.514Z,49.27
2022-11-14T17:14:40.802Z,50.37
2022-11-14T17:17:26.664Z,48.53
2022-11-14T17:20:12.537Z,47.73
2022-11-14T17:22:58.738Z,47.60
2022-11-14T17:25:48.648Z,47.37
2022-11-14T17:28:35.298Z,45.87
2022-11-14T17:31:21.734Z,45.90
2022-11-14T17:34:10.572Z,46.33
2022-11-14T17:36:56.423Z,48.67
2022-11-14T17:39:42.134Z,69.10
2022-11-14T17:42:28.387Z,63.13
2022-11-14T17:45:15.359Z,50.07
2022-11-14T17:48:02.944Z,50.53
2022-11-14T17:50:48.992Z,70.97
2022-11-14T17:53:34.900Z,65.03
2022-11-14T17:56:24.101Z,55.33
2022-11-14T17:59:09.767Z,52.83
2022-11-14T18:02:00.219Z,58.33
2022-11-14T18:04:47.121Z,61.83
2022-11-14T18:07:33.128Z,57.03
2022-11-14T18:10:19.070Z,51.90
2022-11-14T18:13:05.554Z,46.53
2022-11-14T18:15:51.647Z,52.07
2022-11-14T18:18:37.960Z,93.70
2022-11-14T18:21:25.358Z,79.10
2022-11-14T18:24:13.091Z,65.70
2022-11-14T18:26:59.220Z,60.90
2022-11-14T18:29:45.249Z,54.43
2022-11-14T18:32:31.223Z,57.07
2022-11-14T18:35:17.357Z,47.63
2022-11-14T18:38:03.005Z,47.30
2022-11-14T18:40:52.924Z,47.80
2022-11-14T18:43:42.963Z,92.47
2022-11-14T18:46:34.389Z,96.27
2022-11-14T18:49:22.847Z,77.87
2022-11-14T18:52:12.861Z,54.13
2022-11-14T18:55:04.847Z,49.43
2022-11-14T18:57:51.064Z,49.73
2022-11-14T19:00:37.004Z,48.67
2022-11-14T19:03:25.451Z,48.47
2022-11-14T19:06:12.994Z,38.50
2022-11-14T19:09:00.795Z,41.07
2022-11-14T19:12:05.271Z,46.73
2022-11-14T19:14:51.724Z,49.87
2022-11-14T19:17:37.391Z,48.97
2022-11-14T19:20:23.454Z,114.77
2022-11-14T19:23:09.236Z,98.53
2022-11-14T19:26:02.187Z,100.40
2022-11-14T19:28:49.106Z,99.73
2022-11-14T19:31:36.502Z,92.17
2022-11-14T19:34:22.134Z,89.63
2022-11-14T19:37:07.983Z,73.10
2022-11-14T19:39:55.507Z,67.27
2022-11-14T19:42:41.192Z,65.00
2022-11-14T19:45:27.150Z,62.37
2022-11-14T19:48:13.980Z,64.43
2022-11-14T19:51:09.658Z,65.47
2022-11-14T19:53:57.287Z,63.53
2022-11-14T19:56:42.840Z,55.50
2022-11-14T19:59:29.286Z,61.50
2022-11-14T20:02:15.170Z,62.83
2022-11-14T20:05:00.871Z,63.07
2022-11-14T20:07:46.949Z,62.00
2022-11-14T20:10:47.376Z,56.17
2022-11-14T20:13:34.999Z,58.33
2022-11-14T20:16:23.383Z,60.67
2022-11-14T20:19:08.950Z,57.93
2022-11-14T20:21:55.535Z,57.17
2022-11-14T20:24:41.640Z,61.43
2022-11-14T20:27:27.522Z,57.20
2022-11-14T20:30:13.577Z,53.70
2022-11-14T20:32:59.462Z,54.60
2022-11-14T20:35:45.703Z,54.90
2022-11-14T20:38:32.324Z,57.20
2022-11-14T20:41:18.943Z,54.37
2022-11-14T20:44:04.776Z,54.07
2022-11-14T20:46:51.050Z,53.17
2022-11-14T20:49:37.407Z,52.27
2022-11-14T20:52:23.745Z,50.93
2022-11-14T20:55:11.891Z,49.43
2022-11-14T20:57:57.722Z,48.30
2022-11-14T21:00:44.024Z,46.50
2022-11-14T21:03:30.457Z,45.23
2022-11-14T21:06:17.002Z,47.10
2022-11-14T21:09:03.031Z,44.80
2022-11-14T21:11:48.997Z,44.60
2022-11-14T21:14:34.891Z,47.70
2022-11-14T21:17:20.743Z,46.63
2022-11-14T21:20:07.267Z,45.80
2022-11-14T21:22:53.350Z,48.17
2022-11-14T21:25:39.164Z,46.27
2022-11-14T21:28:25.142Z,46.80
2022-11-14T21:31:17.324Z,45.97
2022-11-14T21:34:05.770Z,49.77
2022-11-14T21:36:51.616Z,47.20
2022-11-14T21:39:37.350Z,46.40
2022-11-14T21:42:23.322Z,45.30
2022-11-14T21:45:09.932Z,43.37
2022-11-14T21:47:55.879Z,41.77
2022-11-14T21:50:42.043Z,44.00
2022-11-14T21:53:28.799Z,41.97
2022-11-14T21:56:26.620Z,43.20
2022-11-14T21:59:16.820Z,41.67
2022-11-14T22:02:21.121Z,43.43
2022-11-14T22:05:07.703Z,44.90
2022-11-14T22:07:53.502Z,45.73
2022-11-14T22:10:39.409Z,44.23
2022-11-14T22:13:25.676Z,41.90
2022-11-14T22:16:11.756Z,41.30
2022-11-14T22:19:03.541Z,44.70
2022-11-14T22:21:51.146Z,42.27
2022-11-14T22:24:36.734Z,43.73
2022-11-14T22:27:22.616Z,43.80
2022-11-14T22:30:09.311Z,46.83
2022-11-14T22:32:54.998Z,45.37
2022-11-14T22:35:41.349Z,42.37
2022-11-14T22:38:30.082Z,44.40
2022-11-14T22:41:32.178Z,43.50
2022-11-14T22:44:18.873Z,47.50
2022-11-14T22:47:04.684Z,47.03
2022-11-14T22:49:50.757Z,44.27
2022-11-14T22:52:36.634Z,43.73
2022-11-14T22:55:22.406Z,44.63
2022-11-14T22:58:08.244Z,46.03
2022-11-14T23:00:54.255Z,48.23
2022-11-14T23:03:40.506Z,47.90
2022-11-14T23:06:27.806Z,48.60
2022-11-14T23:09:13.332Z,45.57
2022-11-14T23:11:59.172Z,47.13
2022-11-14T23:14:45.092Z,45.70
2022-11-14T23:17:31.946Z,47.37
2022-11-14T23:20:18.441Z,45.23
2022-11-14T23:23:04.988Z,43.90
2022-11-14T23:25:50.809Z,43.17
2022-11-14T23:28:36.978Z,42.77
2022-11-14T23:31:23.851Z,41.03
2022-11-14T23:34:09.773Z,41.00
2022-11-14T23:36:56.519Z,39.50
2022-11-14T23:39:42.139Z,40.93
2022-11-14T23:42:27.973Z,40.13
2022-11-14T23:45:14.261Z,38.63
2022-11-14T23:48:00.076Z,40.33
2022-11-14T23:50:50.510Z,40.00
2022-11-14T23:53:36.686Z,40.03
2022-11-14T23:56:22.650Z,41.70
2022-11-14T23:59:08.586Z,41.47
